Airfield :
LOGIN :

Register | Disclaimer

   EN    FR    IT 

 










Legend :    VFR   Marginal VFR   IFR   Intensive IFR   Very Intensive IFR
Visi :
Ceiling :
>= 8 km
>= 3000ft
5 to 8 km
1000 to 3000 ft
1500m to 5 km
500 to 1000 ft
800 to 1500m
200 to 500 ft
< 800m
< 200 ft
Symbols :   Thunderstorms  Fog  Heavy snow  Heavy precipitations  Wind > 20 kt
SIGMETs :     Misc.  Thunderstorms  Icing  Turbulence  Mountain Waves  Volcanic Ashes







- Airport Elevation : 1187 ft


LIBV - Gioia del Colle Bari

CURRENT METAR :
  • 141755Z 18012KT CAVOK 08/06 Q1014 RMK BKN BKN080 VIS MIN 9999 WIND THR32 /////KT WIND THR14 18010KT BLU

EXPIRED METARs :
  • 141655Z 14009KT CAVOK 08/05 Q1014 RMK BKN BKN080 VIS MIN 9999 WIND THR32 /////KT WIND THR14 17009KT BLU
  • 141555Z 18009KT 9999 -RA SCT040 08/05 Q1014 RMK BKN BKN120 VIS MIN 9999 WIND THR32 /////KT WIND THR14 19008KT BLU

TAF TAF LIBV
Valid from the 14 at 18:00 until the 15 at 03:00 UTC


141700Z 1418/1503 18010KT 6000 BKN040
No reported NOTAMs for that airfield.
1 SIGMET reported for the Brindisi FIR (LIBB) :
 
Severe mountain waves
LIBB SIGMET 7 VALID 141600/142000 LIIB
LIBB BRINDISI FIR SEV MTW FCST WI N4107 E01515 - N4016 E01549 - N4101 E01824 - N4327 E01424 - N4328 E01325 - N4257 E01304 - N4127 E01428 - N4107 E01515 FL020/100 STNR NC=



MET'MAP, your aeronautical weather chart ! - Copyright ORBIFLY December 2007 - Disclaimer

ORBIFLY MET'MAP TEAM :

Programming & Development : Alexandra Zaïnal
Concept & Development : Baudouin d'Aumeries
Co-Development & Prog : Marc-Olivier Méhu
Technical & hardware support : Manuel Goepfert

Contact : metmap@orbifly.com




SOURCES & CREDITS :

   NOAA